Terminal Aerodrome Forecast
Issued by NWS Shreveport, LA

Home | Current Version | Previous Version | Text Only | Print | Product List | Glossary On
Versions: 1 2 3 4 5 6 7 8 9 10 11 12 13
345
FTUS44 KSHV 111138
TAFLFK
TAF
KLFK 111138Z 1112/1212 14010KT P6SM SCT015 OVC020
      TEMPO 1113/1115 OVC015
     FM111500 16012G18KT P6SM SCT009 OVC015
     FM111800 18013G21KT P6SM OVC015
     FM120000 18011G18KT P6SM SCT008 OVC015
     FM120300 18009KT P6SM OVC007
     FM120900 22005KT 3SM BR OVC005=

USA.gov is the U.S. government's official web portal to all federal, state and local government web resources and services.